x

West Tampa - 112 Nm Wnw Of Tampa, Fl (42036) Wave Buoy

7:50pm - Tue 1st Sep 2015 All times are EDT. -4 hours from GMT.

  • Sig Wave height 2.3ft
  • Swell Direction
  • Peak Period 6s
  • Average Period 4s
  • Wind
    2mph, 4mph gusts
  • Sea Temp 86°f
  • Air Temp 81°f
  • Sea Pressure 1015.9mb
  • West Tampa  - 112 Nm Wnw Of Tampa, Fl
  • West Tampa  - 112 Nm Wnw Of Tampa, Fl

More Historic Weather Station data

Upgrade to MSW Pro to gain access to the past 30 days of data for over 8000 Wavebouys and Weather Stations around the globe.

Join Pro

Comparision Forecast

View Surf forecast
   
Tue 09/01 7:50pm 2.5ft 6s 4s 2 4 mph 1015.9mb 86f 81f
6:50pm 2.5ft 6s 4s 4
mph
1016.4mb 86f 81f
5:50pm 2.5ft 6s 4s  -  2 mph 1016.1mb 86f 82f
4:50pm 2.5ft 5s 4s 2 4 mph 1016.5mb 85f 80f
3:50pm 2ft 6s 4s 4 7 mph 1016.7mb 85f 79f
2:50pm 2ft 6s 4s 7 11 mph 1017.7mb 85f 78f
1:50pm 2ft 6s 4s 7 9 mph 1018.1mb 85f 80f
12:50pm 1.6ft 6s 4s 13 16 mph 1017.8mb 85f 80f
11:50am 2.5ft 6s 5s 11
mph
1017.6mb 85f 78f
10:50am 2ft 5s 4s 11 16 mph 1017.8mb 85f 78f
9:50am 2ft 5s 4s 11 13 mph 1017mb 86f 81f
8:50am 2ft 5s 4s 2
mph
1016.8mb 86f 84f
7:50am 1.6ft 5s 4s 7 9 mph 1016.6mb 86f 84f
6:50am 1.6ft 5s 4s 4 9 mph 1016.2mb 86f 83f
5:50am 2ft 3s 3s 11
mph
1015.8mb 86f 84f
4:50am 1.6ft 3s 3s 11 13 mph 1015.6mb 86f 84f
3:50am 1.6ft 4s 3s 11 13 mph 1015.8mb 86f 84f
2:50am 1.6ft 5s 4s 11 13 mph 1016mb 86f 84f
1:50am 1.6ft 4s 4s 11 13 mph 1016.1mb 86f 85f
12:50am 1.6ft 5s 4s 13 16 mph 1016.6mb 86f 85f
Mon 08/31 11:50pm 1.6ft 4s 4s 11 13 mph 1017.1mb 86f 85f
10:50pm 1.6ft 4s 4s 11 13 mph 1017.4mb 86f 84f
9:50pm 2ft 4s 4s 13
mph
1016.8mb 86f 84f
8:50pm 2.5ft 4s 4s 11
mph
1016.3mb 86f 84f
7:50pm 2.5ft 4s 4s 11 13 mph 1016.3mb 86f 84f
6:50pm 2.5ft 4s 4s 13
mph
1016.1mb 86f 84f
5:50pm 2.5ft 4s 4s 13 16 mph 1015.8mb 86f 84f
4:50pm 2.5ft 3s 4s 11
mph
1016.1mb 86f 83f
3:50pm 2ft 6s 4s 18 22 mph 1016.3mb 86f 81f
2:50pm 2ft 5s 4s 11 13 mph 1016.8mb 87f 85f
1:50pm 1.6ft 6s 4s 11 13 mph 1016.7mb 87f 85f
12:50pm 1.6ft 6s 4s 9 11 mph 1017.3mb 86f 85f
11:50am 1.6ft 6s 4s 7 9 mph 1017.4mb 86f 85f
10:50am 1.3ft 6s 4s 7
mph
1017.1mb 86f 85f
9:50am 1.3ft 3s 4s 4 7 mph 1016.4mb 86f 85f
8:50am 1.3ft 3s 3s 4 7 mph 1016.3mb 86f 85f
7:50am 1.3ft 3s 3s 7
mph
1015.6mb 85f 84f
6:50am 1.3ft 3s 3s 2 4 mph 1015.1mb 86f 84f
5:50am 1ft 3s 3s 2
mph
1014.8mb 86f 83f
4:50am 1ft 3s 3s 9 11 mph 1014.7mb 86f 83f
3:50am 1ft 3s 3s 7 9 mph 1014.9mb 86f 84f
2:50am 1ft 3s 3s 7
mph
1015mb 86f 85f
1:50am 1ft 3s 3s 7 9 mph 1015.3mb 86f 85f
12:50am 1ft 4s 3s 7 9 mph 1015.6mb 86f 85f
Sun 08/30 11:50pm 1ft 5s 4s 9
mph
1015.8mb 86f 85f
10:50pm 1ft 5s 3s 7 9 mph 1015.8mb 86f 85f
9:50pm 1.3ft 3s 3s 7 9 mph 1015.4mb 86f 85f
8:50pm 1.3ft 3s 3s 9 11 mph 1015.1mb 86f 84f
7:50pm 1.3ft 4s 3s 11 16 mph 1015mb 86f 84f
6:50pm 1.3ft 4s 3s 9 13 mph 1014.8mb 87f 85f
5:50pm 1.3ft 4s 4s 11
mph
1014.7mb 87f 85f
4:50pm 1.3ft 4s 4s 9 13 mph 1015mb 87f 85f
3:50pm 1.6ft 5s 4s 7 11 mph 1015.4mb 87f 85f
2:50pm 1.6ft 5s 4s 4 7 mph 1015.9mb 88f 84f
1:50pm 1.6ft 5s 4s 4
mph
1016.5mb 87f 84f
12:50pm 1.6ft 5s 4s 2 4 mph 1016.7mb 86f 84f
11:50am 2ft 4s 4s 7 9 mph 1017.1mb 86f 84f
10:50am 1.6ft 5s 4s 7 9 mph 1017mb 85f 84f
9:50am 2ft 5s 4s 7 9 mph 1016.4mb 85f 84f
8:50am 2.5ft 5s 4s 9 11 mph 1016.1mb 85f 84f
7:50am 2ft 5s 4s 13 16 mph 1015.8mb 85f 83f
6:50am 1.6ft 4s 4s 11 13 mph 1015.5mb 85f 83f
5:50am 1.6ft 4s 4s 9 11 mph 1014.9mb 85f 82f
4:50am 1.6ft 4s 3s 7 9 mph 1014.5mb 85f 82f
3:50am 1.3ft 3s 3s 11 13 mph 1014.8mb 85f 82f
2:50am 1ft 3s 3s 9 13 mph 1015.5mb 85f 82f
1:50am 1ft 3s 3s 9 13 mph 1016.1mb 85f 83f
12:50am 1ft 4s 3s 7 9 mph 1016.7mb 85f 83f
Sat 08/29 11:50pm 1ft 4s 3s 9 11 mph 1017.1mb 85f 83f
10:50pm 1.3ft 4s 3s 9 13 mph 1017.5mb 85f 83f
9:50pm 1.3ft 4s 3s 11 13 mph 1017.2mb 86f 82f
8:50pm 1.3ft 4s 4s 13 16 mph 1016.7mb 86f 81f
7:50pm 1.3ft 4s 4s 11 13 mph 1016mb 85f 81f
6:50pm 1.3ft 5s 4s 7 9 mph 1015.8mb 85f 80f
5:50pm 1.3ft 4s 4s 4 7 mph 1016.5mb 85f 80f
4:50pm 1ft 5s 4s 9 11 mph 1016.8mb 85f 80f
3:50pm 1.3ft 5s 4s 4 7 mph 1018.1mb 85f 79f
2:50pm 1.3ft 4s 4s 9 11 mph 1018.3mb 85f 78f
1:50pm 1.6ft 5s 4s 7 11 mph 1019.5mb 85f 76f
12:50pm 2ft 4s 4s 11 16 mph 1020mb 85f 78f
11:50am 2.5ft 3s 4s 7 9 mph 1019.5mb 85f 75f
10:50am 2ft 5s 4s 25 31 mph 1019.2mb 86f 76f
9:50am 2ft 5s 4s 4 7 mph 1018.5mb 86f 83f
8:50am 2.5ft 5s 4s 4 7 mph 1017.9mb 86f 83f
7:50am 2.5ft 5s 4s 7 9 mph 1017.5mb 86f 82f
6:50am 2.5ft 5s 4s 7 9 mph 1016.8mb 86f 81f
5:50am 3ft 5s 4s 18 22 mph 1016.6mb 86f 82f
4:50am 3.5ft 5s 4s 9 11 mph 1016.7mb 86f 79f
3:50am 4ft 5s 4s 22 27 mph 1016.7mb 86f 78f
2:50am 3.5ft 4s 4s 20 25 mph 1017.2mb 86f 79f
1:50am 2.5ft 4s 4s 20 27 mph 1017.1mb 87f 82f